sensor_id;sensor_type;location;lat;lon;timestamp;temperature;humidity
5723;DHT22;2886;49.722;8.612;2023-03-01T00:00:15;1.80;72.40
5723;DHT22;2886;49.722;8.612;2023-03-01T00:02:41;1.80;72.80
5723;DHT22;2886;49.722;8.612;2023-03-01T00:05:07;1.80;73.10
5723;DHT22;2886;49.722;8.612;2023-03-01T00:07:33;1.70;73.40
5723;DHT22;2886;49.722;8.612;2023-03-01T00:09:59;1.70;73.60
5723;DHT22;2886;49.722;8.612;2023-03-01T00:12:24;1.70;73.80
5723;DHT22;2886;49.722;8.612;2023-03-01T00:14:50;1.70;74.00
5723;DHT22;2886;49.722;8.612;2023-03-01T00:17:16;1.70;74.20
5723;DHT22;2886;49.722;8.612;2023-03-01T00:19:42;1.70;74.10
5723;DHT22;2886;49.722;8.612;2023-03-01T00:22:08;1.70;74.00
5723;DHT22;2886;49.722;8.612;2023-03-01T00:24:33;1.70;74.10
5723;DHT22;2886;49.722;8.612;2023-03-01T00:26:59;1.60;74.60
5723;DHT22;2886;49.722;8.612;2023-03-01T00:29:25;1.60;75.00
5723;DHT22;2886;49.722;8.612;2023-03-01T00:31:51;1.70;74.60
5723;DHT22;2886;49.722;8.612;2023-03-01T00:34:17;1.70;74.50
5723;DHT22;2886;49.722;8.612;2023-03-01T00:36:42;1.70;74.60
5723;DHT22;2886;49.722;8.612;2023-03-01T00:39:12;1.60;74.70
5723;DHT22;2886;49.722;8.612;2023-03-01T00:41:38;1.50;75.20
5723;DHT22;2886;49.722;8.612;2023-03-01T00:44:05;1.50;75.50
5723;DHT22;2886;49.722;8.612;2023-03-01T00:46:31;1.40;76.00
5723;DHT22;2886;49.722;8.612;2023-03-01T00:48:57;1.30;76.50
5723;DHT22;2886;49.722;8.612;2023-03-01T00:51:27;1.20;77.60
5723;DHT22;2886;49.722;8.612;2023-03-01T00:53:54;1.20;77.60
5723;DHT22;2886;49.722;8.612;2023-03-01T00:56:20;1.30;77.30
5723;DHT22;2886;49.722;8.612;2023-03-01T00:58:46;1.30;77.40
5723;DHT22;2886;49.722;8.612;2023-03-01T01:01:17;1.20;77.70
5723;DHT22;2886;49.722;8.612;2023-03-01T01:03:56;1.30;77.70
5723;DHT22;2886;49.722;8.612;2023-03-01T01:06:28;1.30;77.80
5723;DHT22;2886;49.722;8.612;2023-03-01T01:08:54;1.30;77.70
5723;DHT22;2886;49.722;8.612;2023-03-01T01:11:21;1.40;77.40
5723;DHT22;2886;49.722;8.612;2023-03-01T01:13:48;1.40;77.40
5723;DHT22;2886;49.722;8.612;2023-03-01T01:16:15;1.40;76.90
5723;DHT22;2886;49.722;8.612;2023-03-01T01:18:40;1.50;76.60
5723;DHT22;2886;49.722;8.612;2023-03-01T01:21:08;1.50;76.50
5723;DHT22;2886;49.722;8.612;2023-03-01T01:23:35;1.50;76.50
5723;DHT22;2886;49.722;8.612;2023-03-01T01:26:10;1.60;75.90
5723;DHT22;2886;49.722;8.612;2023-03-01T01:28:36;1.60;75.60
5723;DHT22;2886;49.722;8.612;2023-03-01T01:31:03;1.70;75.60
5723;DHT22;2886;49.722;8.612;2023-03-01T01:33:28;1.70;74.80
5723;DHT22;2886;49.722;8.612;2023-03-01T01:35:54;1.70;74.80
5723;DHT22;2886;49.722;8.612;2023-03-01T01:38:20;1.70;75.00
5723;DHT22;2886;49.722;8.612;2023-03-01T01:40:47;1.70;75.10
5723;DHT22;2886;49.722;8.612;2023-03-01T01:43:22;1.70;75.20
5723;DHT22;2886;49.722;8.612;2023-03-01T01:45:48;1.70;75.20
5723;DHT22;2886;49.722;8.612;2023-03-01T01:48:18;1.60;75.70
5723;DHT22;2886;49.722;8.612;2023-03-01T01:50:45;1.50;76.20
5723;DHT22;2886;49.722;8.612;2023-03-01T01:53:16;1.30;78.00
5723;DHT22;2886;49.722;8.612;2023-03-01T01:55:51;1.00;79.80
5723;DHT22;2886;49.722;8.612;2023-03-01T01:58:19;0.90;81.20
5723;DHT22;2886;49.722;8.612;2023-03-01T02:00:46;0.80;81.60
5723;DHT22;2886;49.722;8.612;2023-03-01T02:03:17;0.70;82.80
5723;DHT22;2886;49.722;8.612;2023-03-01T02:08:27;0.60;84.30
5723;DHT22;2886;49.722;8.612;2023-03-01T02:10:56;0.50;85.90
5723;DHT22;2886;49.722;8.612;2023-03-01T02:13:22;0.50;85.60
5723;DHT22;2886;49.722;8.612;2023-03-01T02:15:48;0.50;85.80
5723;DHT22;2886;49.722;8.612;2023-03-01T02:18:17;0.40;86.30
5723;DHT22;2886;49.722;8.612;2023-03-01T02:23:50;0.40;87.00
5723;DHT22;2886;49.722;8.612;2023-03-01T02:26:48;0.30;88.00
5723;DHT22;2886;49.722;8.612;2023-03-01T02:29:15;0.20;88.60
5723;DHT22;2886;49.722;8.612;2023-03-01T02:31:41;0.10;89.70
5723;DHT22;2886;49.722;8.612;2023-03-01T02:34:18;0.10;90.20
5723;DHT22;2886;49.722;8.612;2023-03-01T02:36:52;0.10;90.50
5723;DHT22;2886;49.722;8.612;2023-03-01T02:39:25;0.00;90.80
5723;DHT22;2886;49.722;8.612;2023-03-01T02:41:54;0.00;90.80
5723;DHT22;2886;49.722;8.612;2023-03-01T02:44:22;0.00;91.10
5723;DHT22;2886;49.722;8.612;2023-03-01T02:46:50;0.00;91.40
5723;DHT22;2886;49.722;8.612;2023-03-01T02:49:25;-0.10;91.80
5723;DHT22;2886;49.722;8.612;2023-03-01T02:54:34;-0.40;93.30
5723;DHT22;2886;49.722;8.612;2023-03-01T02:57:02;-0.40;93.80
5723;DHT22;2886;49.722;8.612;2023-03-01T02:59:31;-0.50;94.00
5723;DHT22;2886;49.722;8.612;2023-03-01T03:02:00;-0.50;94.30
5723;DHT22;2886;49.722;8.612;2023-03-01T03:04:26;-0.50;94.60
5723;DHT22;2886;49.722;8.612;2023-03-01T03:06:51;-0.50;94.70
5723;DHT22;2886;49.722;8.612;2023-03-01T03:09:18;-0.50;94.70
5723;DHT22;2886;49.722;8.612;2023-03-01T03:11:44;-0.50;94.80
5723;DHT22;2886;49.722;8.612;2023-03-01T03:14:12;-0.50;94.90
5723;DHT22;2886;49.722;8.612;2023-03-01T03:16:42;-0.50;95.10
5723;DHT22;2886;49.722;8.612;2023-03-01T03:19:09;-0.50;95.00
5723;DHT22;2886;49.722;8.612;2023-03-01T03:21:35;-0.50;95.10
5723;DHT22;2886;49.722;8.612;2023-03-01T03:24:01;-0.50;94.90
5723;DHT22;2886;49.722;8.612;2023-03-01T03:26:26;-0.40;94.80
5723;DHT22;2886;49.722;8.612;2023-03-01T03:28:52;-0.40;94.70
5723;DHT22;2886;49.722;8.612;2023-03-01T03:31:18;-0.30;94.50
5723;DHT22;2886;49.722;8.612;2023-03-01T03:33:44;-0.30;94.20
5723;DHT22;2886;49.722;8.612;2023-03-01T03:36:09;-0.20;93.80
5723;DHT22;2886;49.722;8.612;2023-03-01T03:38:40;-0.20;93.70
5723;DHT22;2886;49.722;8.612;2023-03-01T03:41:07;-0.10;93.60
5723;DHT22;2886;49.722;8.612;2023-03-01T03:43:36;-0.10;93.50
5723;DHT22;2886;49.722;8.612;2023-03-01T03:46:02;-0.10;93.30
5723;DHT22;2886;49.722;8.612;2023-03-01T03:48:39;-0.10;93.20
5723;DHT22;2886;49.722;8.612;2023-03-01T03:51:05;-0.10;93.10
5723;DHT22;2886;49.722;8.612;2023-03-01T03:53:31;-0.10;93.20
5723;DHT22;2886;49.722;8.612;2023-03-01T03:55:57;-0.10;93.30
5723;DHT22;2886;49.722;8.612;2023-03-01T03:58:25;-0.10;93.30
5723;DHT22;2886;49.722;8.612;2023-03-01T04:00:53;-0.10;93.50
5723;DHT22;2886;49.722;8.612;2023-03-01T04:03:21;-0.10;93.60
5723;DHT22;2886;49.722;8.612;2023-03-01T04:05:47;-0.10;93.70
5723;DHT22;2886;49.722;8.612;2023-03-01T04:08:17;-0.10;93.70
5723;DHT22;2886;49.722;8.612;2023-03-01T04:10:47;-0.10;93.80
5723;DHT22;2886;49.722;8.612;2023-03-01T04:13:19;-0.20;94.00
5723;DHT22;2886;49.722;8.612;2023-03-01T04:15:46;-0.10;94.00
5723;DHT22;2886;49.722;8.612;2023-03-01T04:18:13;-0.20;94.00
5723;DHT22;2886;49.722;8.612;2023-03-01T04:20:39;-0.10;94.00
5723;DHT22;2886;49.722;8.612;2023-03-01T04:23:07;-0.10;93.90
5723;DHT22;2886;49.722;8.612;2023-03-01T04:25:54;-0.10;93.90
5723;DHT22;2886;49.722;8.612;2023-03-01T04:28:30;-0.10;94.00
5723;DHT22;2886;49.722;8.612;2023-03-01T04:30:57;-0.10;93.90
5723;DHT22;2886;49.722;8.612;2023-03-01T04:33:24;-0.10;94.00
5723;DHT22;2886;49.722;8.612;2023-03-01T04:35:51;-0.20;94.00
5723;DHT22;2886;49.722;8.612;2023-03-01T04:38:20;-0.10;94.00
5723;DHT22;2886;49.722;8.612;2023-03-01T04:40:46;-0.10;94.20
5723;DHT22;2886;49.722;8.612;2023-03-01T04:43:13;-0.10;94.30
5723;DHT22;2886;49.722;8.612;2023-03-01T04:45:39;-0.10;94.30
5723;DHT22;2886;49.722;8.612;2023-03-01T04:48:05;-0.10;94.30
5723;DHT22;2886;49.722;8.612;2023-03-01T04:50:31;-0.10;94.30
5723;DHT22;2886;49.722;8.612;2023-03-01T04:52:57;-0.10;94.40
5723;DHT22;2886;49.722;8.612;2023-03-01T04:55:27;-0.10;94.40
5723;DHT22;2886;49.722;8.612;2023-03-01T04:57:54;0.00;94.30
5723;DHT22;2886;49.722;8.612;2023-03-01T05:00:20;0.00;94.40
5723;DHT22;2886;49.722;8.612;2023-03-01T05:02:57;0.00;94.50
5723;DHT22;2886;49.722;8.612;2023-03-01T05:05:26;0.00;94.50
5723;DHT22;2886;49.722;8.612;2023-03-01T05:07:57;0.00;94.30
5723;DHT22;2886;49.722;8.612;2023-03-01T05:10:28;0.00;94.60
5723;DHT22;2886;49.722;8.612;2023-03-01T05:12:55;0.00;94.60
5723;DHT22;2886;49.722;8.612;2023-03-01T05:15:23;0.00;94.60
5723;DHT22;2886;49.722;8.612;2023-03-01T05:17:51;0.00;94.80
5723;DHT22;2886;49.722;8.612;2023-03-01T05:20:17;-0.10;95.00
5723;DHT22;2886;49.722;8.612;2023-03-01T05:22:43;-0.10;95.00
5723;DHT22;2886;49.722;8.612;2023-03-01T05:25:09;-0.10;95.00
5723;DHT22;2886;49.722;8.612;2023-03-01T05:27:36;-0.10;95.10
5723;DHT22;2886;49.722;8.612;2023-03-01T05:30:02;-0.10;95.00
5723;DHT22;2886;49.722;8.612;2023-03-01T05:32:49;-0.10;95.30
5723;DHT22;2886;49.722;8.612;2023-03-01T05:35:21;-0.10;95.50
5723;DHT22;2886;49.722;8.612;2023-03-01T05:37:48;-0.10;95.50
5723;DHT22;2886;49.722;8.612;2023-03-01T05:40:17;-0.10;95.30
5723;DHT22;2886;49.722;8.612;2023-03-01T05:42:44;-0.10;95.40
5723;DHT22;2886;49.722;8.612;2023-03-01T05:45:11;-0.20;95.40
5723;DHT22;2886;49.722;8.612;2023-03-01T05:47:41;-0.20;95.30
5723;DHT22;2886;49.722;8.612;2023-03-01T05:50:12;-0.20;95.40
5723;DHT22;2886;49.722;8.612;2023-03-01T05:52:38;-0.10;95.30
5723;DHT22;2886;49.722;8.612;2023-03-01T05:55:04;-0.10;95.10
5723;DHT22;2886;49.722;8.612;2023-03-01T05:57:30;-0.10;95.30
5723;DHT22;2886;49.722;8.612;2023-03-01T05:59:55;-0.10;95.20
5723;DHT22;2886;49.722;8.612;2023-03-01T06:02:21;-0.10;95.10
5723;DHT22;2886;49.722;8.612;2023-03-01T06:04:46;-0.10;95.30
5723;DHT22;2886;49.722;8.612;2023-03-01T06:07:12;-0.10;95.30
5723;DHT22;2886;49.722;8.612;2023-03-01T06:09:38;-0.10;95.60
5723;DHT22;2886;49.722;8.612;2023-03-01T06:12:03;-0.20;95.60
5723;DHT22;2886;49.722;8.612;2023-03-01T06:14:31;-0.20;95.70
5723;DHT22;2886;49.722;8.612;2023-03-01T06:16:57;-0.20;95.70
5723;DHT22;2886;49.722;8.612;2023-03-01T06:19:23;-0.20;95.90
5723;DHT22;2886;49.722;8.612;2023-03-01T06:21:49;-0.20;95.90
5723;DHT22;2886;49.722;8.612;2023-03-01T06:24:14;-0.20;96.10
5723;DHT22;2886;49.722;8.612;2023-03-01T06:26:40;-0.20;96.00
5723;DHT22;2886;49.722;8.612;2023-03-01T06:29:05;-0.20;96.10
5723;DHT22;2886;49.722;8.612;2023-03-01T06:31:31;-0.20;95.90
5723;DHT22;2886;49.722;8.612;2023-03-01T06:33:56;-0.20;96.00
5723;DHT22;2886;49.722;8.612;2023-03-01T06:36:22;-0.20;96.30
5723;DHT22;2886;49.722;8.612;2023-03-01T06:38:48;-0.20;96.20
5723;DHT22;2886;49.722;8.612;2023-03-01T06:41:13;-0.10;96.00
5723;DHT22;2886;49.722;8.612;2023-03-01T06:43:39;-0.10;95.90
5723;DHT22;2886;49.722;8.612;2023-03-01T06:46:05;-0.10;95.70
5723;DHT22;2886;49.722;8.612;2023-03-01T06:48:32;-0.10;95.70
5723;DHT22;2886;49.722;8.612;2023-03-01T06:50:59;-0.10;95.80
5723;DHT22;2886;49.722;8.612;2023-03-01T06:53:27;-0.10;96.00
5723;DHT22;2886;49.722;8.612;2023-03-01T06:55:56;-0.10;96.00
5723;DHT22;2886;49.722;8.612;2023-03-01T06:58:22;0.00;96.00
5723;DHT22;2886;49.722;8.612;2023-03-01T07:00:49;0.00;95.80
5723;DHT22;2886;49.722;8.612;2023-03-01T07:03:14;0.00;95.50
5723;DHT22;2886;49.722;8.612;2023-03-01T07:05:40;0.00;95.80
5723;DHT22;2886;49.722;8.612;2023-03-01T07:08:06;0.10;95.90
5723;DHT22;2886;49.722;8.612;2023-03-01T07:10:31;0.10;95.50
5723;DHT22;2886;49.722;8.612;2023-03-01T07:12:58;0.10;95.80
5723;DHT22;2886;49.722;8.612;2023-03-01T07:15:24;0.10;95.60
5723;DHT22;2886;49.722;8.612;2023-03-01T07:17:51;0.20;95.80
5723;DHT22;2886;49.722;8.612;2023-03-01T07:20:18;0.20;95.40
5723;DHT22;2886;49.722;8.612;2023-03-01T07:22:43;0.30;95.60
5723;DHT22;2886;49.722;8.612;2023-03-01T07:25:10;0.40;95.40
5723;DHT22;2886;49.722;8.612;2023-03-01T07:27:36;0.60;95.00
5723;DHT22;2886;49.722;8.612;2023-03-01T07:30:03;0.80;94.60
5723;DHT22;2886;49.722;8.612;2023-03-01T07:32:28;1.00;94.60
5723;DHT22;2886;49.722;8.612;2023-03-01T07:34:54;1.30;93.40
5723;DHT22;2886;49.722;8.612;2023-03-01T07:37:20;1.50;92.90
5723;DHT22;2886;49.722;8.612;2023-03-01T07:39:45;1.80;92.80
5723;DHT22;2886;49.722;8.612;2023-03-01T07:42:11;2.00;91.30
5723;DHT22;2886;49.722;8.612;2023-03-01T07:44:36;2.10;90.50
5723;DHT22;2886;49.722;8.612;2023-03-01T07:47:03;2.20;89.70
5723;DHT22;2886;49.722;8.612;2023-03-01T07:49:29;2.30;86.40
5723;DHT22;2886;49.722;8.612;2023-03-01T07:51:54;2.30;85.90
5723;DHT22;2886;49.722;8.612;2023-03-01T07:54:20;2.40;86.00
5723;DHT22;2886;49.722;8.612;2023-03-01T07:56:46;2.50;84.40
5723;DHT22;2886;49.722;8.612;2023-03-01T07:59:12;2.50;85.00
5723;DHT22;2886;49.722;8.612;2023-03-01T08:01:37;2.60;83.00
5723;DHT22;2886;49.722;8.612;2023-03-01T08:04:03;2.80;83.60
5723;DHT22;2886;49.722;8.612;2023-03-01T08:06:34;2.90;82.10
5723;DHT22;2886;49.722;8.612;2023-03-01T08:08:59;3.00;80.80
5723;DHT22;2886;49.722;8.612;2023-03-01T08:11:25;3.20;80.20
5723;DHT22;2886;49.722;8.612;2023-03-01T08:13:54;3.40;77.50
5723;DHT22;2886;49.722;8.612;2023-03-01T08:16:20;3.40;77.30
5723;DHT22;2886;49.722;8.612;2023-03-01T08:18:46;3.30;77.70
5723;DHT22;2886;49.722;8.612;2023-03-01T08:21:14;3.40;76.60
5723;DHT22;2886;49.722;8.612;2023-03-01T08:23:41;3.40;77.00
5723;DHT22;2886;49.722;8.612;2023-03-01T08:26:10;3.40;76.60
5723;DHT22;2886;49.722;8.612;2023-03-01T08:28:37;3.40;77.30
5723;DHT22;2886;49.722;8.612;2023-03-01T08:31:16;3.70;75.60
5723;DHT22;2886;49.722;8.612;2023-03-01T08:33:42;3.90;73.70
5723;DHT22;2886;49.722;8.612;2023-03-01T08:36:08;4.00;73.40
5723;DHT22;2886;49.722;8.612;2023-03-01T08:38:34;4.20;71.10
5723;DHT22;2886;49.722;8.612;2023-03-01T08:41:02;4.20;71.70
5723;DHT22;2886;49.722;8.612;2023-03-01T08:43:28;4.40;70.50
5723;DHT22;2886;49.722;8.612;2023-03-01T08:45:54;4.60;68.20
5723;DHT22;2886;49.722;8.612;2023-03-01T08:48:19;4.50;69.00
5723;DHT22;2886;49.722;8.612;2023-03-01T08:50:45;4.60;67.50
5723;DHT22;2886;49.722;8.612;2023-03-01T08:53:10;4.50;66.80
5723;DHT22;2886;49.722;8.612;2023-03-01T08:55:36;4.60;67.00
5723;DHT22;2886;49.722;8.612;2023-03-01T08:58:03;4.40;66.00
5723;DHT22;2886;49.722;8.612;2023-03-01T09:00:28;4.50;66.80
5723;DHT22;2886;49.722;8.612;2023-03-01T09:02:54;4.80;65.20
5723;DHT22;2886;49.722;8.612;2023-03-01T09:05:20;5.10;64.60
5723;DHT22;2886;49.722;8.612;2023-03-01T09:07:45;5.30;64.00
5723;DHT22;2886;49.722;8.612;2023-03-01T09:10:11;5.60;62.10
5723;DHT22;2886;49.722;8.612;2023-03-01T09:12:36;5.80;60.90
5723;DHT22;2886;49.722;8.612;2023-03-01T09:15:02;6.00;60.70
5723;DHT22;2886;49.722;8.612;2023-03-01T09:17:28;6.10;60.20
5723;DHT22;2886;49.722;8.612;2023-03-01T09:19:53;6.30;58.40
5723;DHT22;2886;49.722;8.612;2023-03-01T09:22:19;6.00;59.60
5723;DHT22;2886;49.722;8.612;2023-03-01T09:24:44;6.10;58.10
5723;DHT22;2886;49.722;8.612;2023-03-01T09:27:10;5.50;60.00
5723;DHT22;2886;49.722;8.612;2023-03-01T09:29:38;5.20;62.00
5723;DHT22;2886;49.722;8.612;2023-03-01T09:32:03;5.20;62.30
5723;DHT22;2886;49.722;8.612;2023-03-01T09:34:29;5.30;61.60
5723;DHT22;2886;49.722;8.612;2023-03-01T09:36:56;5.40;62.20
5723;DHT22;2886;49.722;8.612;2023-03-01T09:39:22;5.40;61.30
5723;DHT22;2886;49.722;8.612;2023-03-01T09:42:03;5.50;61.60
5723;DHT22;2886;49.722;8.612;2023-03-01T09:44:50;5.50;60.70
5723;DHT22;2886;49.722;8.612;2023-03-01T09:47:21;5.70;60.80
5723;DHT22;2886;49.722;8.612;2023-03-01T09:53:00;6.50;56.70
5723;DHT22;2886;49.722;8.612;2023-03-01T09:58:47;6.60;54.30
5723;DHT22;2886;49.722;8.612;2023-03-01T10:09:40;6.80;53.20
5723;DHT22;2886;49.722;8.612;2023-03-01T10:12:19;6.80;53.70
5723;DHT22;2886;49.722;8.612;2023-03-01T10:17:50;6.70;53.50
5723;DHT22;2886;49.722;8.612;2023-03-01T10:20:22;6.90;52.70
5723;DHT22;2886;49.722;8.612;2023-03-01T10:22:48;7.00;52.10
5723;DHT22;2886;49.722;8.612;2023-03-01T10:25:41;7.20;52.30
5723;DHT22;2886;49.722;8.612;2023-03-01T10:30:41;7.30;51.20
5723;DHT22;2886;49.722;8.612;2023-03-01T10:33:33;7.20;52.00
5723;DHT22;2886;49.722;8.612;2023-03-01T10:36:01;7.20;51.80
5723;DHT22;2886;49.722;8.612;2023-03-01T10:38:30;7.10;52.00
5723;DHT22;2886;49.722;8.612;2023-03-01T10:41:05;7.30;51.10
5723;DHT22;2886;49.722;8.612;2023-03-01T10:43:58;7.50;50.60
5723;DHT22;2886;49.722;8.612;2023-03-01T10:46:36;7.20;50.50
5723;DHT22;2886;49.722;8.612;2023-03-01T10:51:43;7.00;52.20
5723;DHT22;2886;49.722;8.612;2023-03-01T10:54:38;7.20;50.60
5723;DHT22;2886;49.722;8.612;2023-03-01T10:57:28;6.80;51.50
5723;DHT22;2886;49.722;8.612;2023-03-01T11:02:51;6.70;51.80
5723;DHT22;2886;49.722;8.612;2023-03-01T11:05:26;6.70;51.20
5723;DHT22;2886;49.722;8.612;2023-03-01T11:07:58;6.80;51.60
5723;DHT22;2886;49.722;8.612;2023-03-01T11:10:35;7.10;51.20
5723;DHT22;2886;49.722;8.612;2023-03-01T11:13:16;7.30;50.20
5723;DHT22;2886;49.722;8.612;2023-03-01T11:15:43;7.10;50.00
5723;DHT22;2886;49.722;8.612;2023-03-01T11:21:31;6.90;51.00
5723;DHT22;2886;49.722;8.612;2023-03-01T11:24:00;7.10;50.50
5723;DHT22;2886;49.722;8.612;2023-03-01T11:26:27;7.20;50.40
5723;DHT22;2886;49.722;8.612;2023-03-01T11:28:56;7.20;49.70
5723;DHT22;2886;49.722;8.612;2023-03-01T11:31:26;7.40;49.50
5723;DHT22;2886;49.722;8.612;2023-03-01T11:34:47;7.60;49.20
5723;DHT22;2886;49.722;8.612;2023-03-01T11:36:58;7.90;48.80
5723;DHT22;2886;49.722;8.612;2023-03-01T11:39:36;7.70;48.50
5723;DHT22;2886;49.722;8.612;2023-03-01T11:44:29;7.60;48.20
5723;DHT22;2886;49.722;8.612;2023-03-01T12:03:51;7.80;47.50
5723;DHT22;2886;49.722;8.612;2023-03-01T12:06:56;7.40;48.20
5723;DHT22;2886;49.722;8.612;2023-03-01T12:09:36;7.40;48.60
5723;DHT22;2886;49.722;8.612;2023-03-01T12:20:58;7.70;48.40
5723;DHT22;2886;49.722;8.612;2023-03-01T12:23:45;7.80;48.70
5723;DHT22;2886;49.722;8.612;2023-03-01T12:31:44;7.70;48.80
5723;DHT22;2886;49.722;8.612;2023-03-01T12:37:28;7.80;48.40
5723;DHT22;2886;49.722;8.612;2023-03-01T12:43:28;7.70;48.10
5723;DHT22;2886;49.722;8.612;2023-03-01T12:48:50;7.70;47.70
5723;DHT22;2886;49.722;8.612;2023-03-01T12:51:27;7.90;48.20
5723;DHT22;2886;49.722;8.612;2023-03-01T12:53:57;7.70;47.70
5723;DHT22;2886;49.722;8.612;2023-03-01T12:56:29;7.60;47.70
5723;DHT22;2886;49.722;8.612;2023-03-01T12:59:12;7.70;47.50
5723;DHT22;2886;49.722;8.612;2023-03-01T13:07:41;7.70;47.60
5723;DHT22;2886;49.722;8.612;2023-03-01T13:13:18;7.80;47.40
5723;DHT22;2886;49.722;8.612;2023-03-01T13:15:44;7.90;47.20
5723;DHT22;2886;49.722;8.612;2023-03-01T13:31:01;8.10;46.40
5723;DHT22;2886;49.722;8.612;2023-03-01T13:35:57;8.20;45.80
5723;DHT22;2886;49.722;8.612;2023-03-01T13:41:12;8.30;46.10
5723;DHT22;2886;49.722;8.612;2023-03-01T13:43:41;8.30;44.80
5723;DHT22;2886;49.722;8.612;2023-03-01T13:46:20;8.20;44.50
5723;DHT22;2886;49.722;8.612;2023-03-01T13:48:50;8.30;44.30
5723;DHT22;2886;49.722;8.612;2023-03-01T13:51:21;8.40;44.70
5723;DHT22;2886;49.722;8.612;2023-03-01T13:53:48;8.40;44.30
5723;DHT22;2886;49.722;8.612;2023-03-01T13:56:19;8.50;44.30
5723;DHT22;2886;49.722;8.612;2023-03-01T13:58:52;8.50;44.10
5723;DHT22;2886;49.722;8.612;2023-03-01T14:01:34;8.50;44.30
5723;DHT22;2886;49.722;8.612;2023-03-01T14:04:00;8.70;44.30
5723;DHT22;2886;49.722;8.612;2023-03-01T14:06:29;8.50;43.90
5723;DHT22;2886;49.722;8.612;2023-03-01T14:09:25;8.70;44.20
5723;DHT22;2886;49.722;8.612;2023-03-01T14:12:14;8.70;43.50
5723;DHT22;2886;49.722;8.612;2023-03-01T14:20:28;8.80;43.40
5723;DHT22;2886;49.722;8.612;2023-03-01T14:22:58;8.80;43.80
5723;DHT22;2886;49.722;8.612;2023-03-01T14:25:30;8.80;44.00
5723;DHT22;2886;49.722;8.612;2023-03-01T14:30:45;8.90;43.30
5723;DHT22;2886;49.722;8.612;2023-03-01T14:33:20;8.80;43.40
5723;DHT22;2886;49.722;8.612;2023-03-01T14:35:58;8.80;43.40
5723;DHT22;2886;49.722;8.612;2023-03-01T14:41:00;8.80;43.30
5723;DHT22;2886;49.722;8.612;2023-03-01T14:43:29;8.80;43.20
5723;DHT22;2886;49.722;8.612;2023-03-01T14:45:55;8.80;43.40
5723;DHT22;2886;49.722;8.612;2023-03-01T14:48:23;8.90;43.00
5723;DHT22;2886;49.722;8.612;2023-03-01T14:50:50;9.00;42.90
5723;DHT22;2886;49.722;8.612;2023-03-01T14:53:21;8.90;42.90
5723;DHT22;2886;49.722;8.612;2023-03-01T14:55:52;8.90;43.10
5723;DHT22;2886;49.722;8.612;2023-03-01T14:58:23;8.90;42.90
5723;DHT22;2886;49.722;8.612;2023-03-01T15:00:55;8.90;42.80
5723;DHT22;2886;49.722;8.612;2023-03-01T15:03:37;8.90;42.70
5723;DHT22;2886;49.722;8.612;2023-03-01T15:06:05;9.00;42.60
5723;DHT22;2886;49.722;8.612;2023-03-01T15:08:32;9.10;42.00
5723;DHT22;2886;49.722;8.612;2023-03-01T15:11:01;9.10;42.60
5723;DHT22;2886;49.722;8.612;2023-03-01T15:13:33;9.10;42.50
5723;DHT22;2886;49.722;8.612;2023-03-01T15:16:27;9.00;42.10
5723;DHT22;2886;49.722;8.612;2023-03-01T15:19:00;9.00;42.10
5723;DHT22;2886;49.722;8.612;2023-03-01T15:21:29;8.90;42.40
5723;DHT22;2886;49.722;8.612;2023-03-01T15:26:58;9.00;42.50
5723;DHT22;2886;49.722;8.612;2023-03-01T15:29:33;9.00;42.80
5723;DHT22;2886;49.722;8.612;2023-03-01T15:32:05;9.00;42.80
5723;DHT22;2886;49.722;8.612;2023-03-01T15:34:34;8.90;43.40
5723;DHT22;2886;49.722;8.612;2023-03-01T15:37:01;8.90;43.70
5723;DHT22;2886;49.722;8.612;2023-03-01T15:39:40;8.90;44.40
5723;DHT22;2886;49.722;8.612;2023-03-01T15:45:20;8.90;44.20
5723;DHT22;2886;49.722;8.612;2023-03-01T15:48:13;8.90;44.60
5723;DHT22;2886;49.722;8.612;2023-03-01T15:50:40;8.70;44.90
5723;DHT22;2886;49.722;8.612;2023-03-01T15:53:12;8.70;45.30
5723;DHT22;2886;49.722;8.612;2023-03-01T15:55:39;8.60;45.80
5723;DHT22;2886;49.722;8.612;2023-03-01T15:58:15;8.60;45.80
5723;DHT22;2886;49.722;8.612;2023-03-01T16:00:42;8.50;46.00
5723;DHT22;2886;49.722;8.612;2023-03-01T16:03:09;8.50;46.00
5723;DHT22;2886;49.722;8.612;2023-03-01T16:05:37;8.50;46.50
5723;DHT22;2886;49.722;8.612;2023-03-01T16:08:05;8.40;46.40
5723;DHT22;2886;49.722;8.612;2023-03-01T16:10:32;8.40;46.70
5723;DHT22;2886;49.722;8.612;2023-03-01T16:12:58;8.40;46.80
5723;DHT22;2886;49.722;8.612;2023-03-01T16:15:27;8.30;47.40
5723;DHT22;2886;49.722;8.612;2023-03-01T16:17:53;8.40;47.40
5723;DHT22;2886;49.722;8.612;2023-03-01T16:20:20;8.30;47.50
5723;DHT22;2886;49.722;8.612;2023-03-01T16:22:46;8.30;47.70
5723;DHT22;2886;49.722;8.612;2023-03-01T16:25:15;8.30;47.80
5723;DHT22;2886;49.722;8.612;2023-03-01T16:27:45;8.30;48.00
5723;DHT22;2886;49.722;8.612;2023-03-01T16:30:12;8.30;48.20
5723;DHT22;2886;49.722;8.612;2023-03-01T16:32:39;8.20;48.10
5723;DHT22;2886;49.722;8.612;2023-03-01T16:35:06;8.10;48.30
5723;DHT22;2886;49.722;8.612;2023-03-01T16:37:33;8.10;48.70
5723;DHT22;2886;49.722;8.612;2023-03-01T16:39:59;8.10;48.70
5723;DHT22;2886;49.722;8.612;2023-03-01T16:42:25;8.00;48.90
5723;DHT22;2886;49.722;8.612;2023-03-01T16:44:57;8.00;49.10
5723;DHT22;2886;49.722;8.612;2023-03-01T16:47:23;7.90;49.30
5723;DHT22;2886;49.722;8.612;2023-03-01T16:49:52;7.80;49.70
5723;DHT22;2886;49.722;8.612;2023-03-01T16:52:19;7.80;49.70
5723;DHT22;2886;49.722;8.612;2023-03-01T16:54:45;7.80;50.00
5723;DHT22;2886;49.722;8.612;2023-03-01T16:57:11;7.70;50.30
5723;DHT22;2886;49.722;8.612;2023-03-01T16:59:37;7.60;50.60
5723;DHT22;2886;49.722;8.612;2023-03-01T17:02:04;7.50;50.90
5723;DHT22;2886;49.722;8.612;2023-03-01T17:04:32;7.40;51.30
5723;DHT22;2886;49.722;8.612;2023-03-01T17:06:58;7.40;51.10
5723;DHT22;2886;49.722;8.612;2023-03-01T17:09:23;7.30;51.40
5723;DHT22;2886;49.722;8.612;2023-03-01T17:11:49;7.20;51.70
5723;DHT22;2886;49.722;8.612;2023-03-01T17:14:15;7.20;52.20
5723;DHT22;2886;49.722;8.612;2023-03-01T17:16:43;7.00;52.50
5723;DHT22;2886;49.722;8.612;2023-03-01T17:19:09;7.00;52.60
5723;DHT22;2886;49.722;8.612;2023-03-01T17:21:34;7.00;52.60
5723;DHT22;2886;49.722;8.612;2023-03-01T17:24:00;6.90;53.00
5723;DHT22;2886;49.722;8.612;2023-03-01T17:26:26;6.80;53.20
5723;DHT22;2886;49.722;8.612;2023-03-01T17:28:56;6.80;53.60
5723;DHT22;2886;49.722;8.612;2023-03-01T17:31:22;6.70;54.10
5723;DHT22;2886;49.722;8.612;2023-03-01T17:33:48;6.60;54.00
5723;DHT22;2886;49.722;8.612;2023-03-01T17:36:15;6.60;54.60
5723;DHT22;2886;49.722;8.612;2023-03-01T17:38:41;6.50;54.50
5723;DHT22;2886;49.722;8.612;2023-03-01T17:41:06;6.50;55.00
5723;DHT22;2886;49.722;8.612;2023-03-01T17:43:32;6.40;55.20
5723;DHT22;2886;49.722;8.612;2023-03-01T17:45:59;6.30;55.50
5723;DHT22;2886;49.722;8.612;2023-03-01T17:48:25;6.30;55.70
5723;DHT22;2886;49.722;8.612;2023-03-01T17:50:51;6.20;55.90
5723;DHT22;2886;49.722;8.612;2023-03-01T17:53:17;6.20;56.20
5723;DHT22;2886;49.722;8.612;2023-03-01T17:55:44;6.20;56.50
5723;DHT22;2886;49.722;8.612;2023-03-01T17:58:12;6.10;56.80
5723;DHT22;2886;49.722;8.612;2023-03-01T18:00:38;6.00;57.20
5723;DHT22;2886;49.722;8.612;2023-03-01T18:03:04;5.90;57.70
5723;DHT22;2886;49.722;8.612;2023-03-01T18:05:32;5.90;58.20
5723;DHT22;2886;49.722;8.612;2023-03-01T18:07:58;5.80;58.70
5723;DHT22;2886;49.722;8.612;2023-03-01T18:10:24;5.70;59.20
5723;DHT22;2886;49.722;8.612;2023-03-01T18:12:50;5.70;59.80
5723;DHT22;2886;49.722;8.612;2023-03-01T18:15:16;5.60;60.10
5723;DHT22;2886;49.722;8.612;2023-03-01T18:17:42;5.50;60.30
5723;DHT22;2886;49.722;8.612;2023-03-01T18:20:08;5.40;60.80
5723;DHT22;2886;49.722;8.612;2023-03-01T18:22:34;5.40;60.90
5723;DHT22;2886;49.722;8.612;2023-03-01T18:25:00;5.40;61.10
5723;DHT22;2886;49.722;8.612;2023-03-01T18:27:25;5.30;61.30
5723;DHT22;2886;49.722;8.612;2023-03-01T18:29:51;5.30;61.50